Fort Covington, New York
Current Conditions -  °F | °C
As of 3:53 AM on Saturday 29 Nov 2014 (Local Time) from KMSS Reporting Station
Clear Clear  
Wind Chill:   Ceiling: Unl
Heat Index: 14°   Visibility: 10mi
Dew Point: 10°   Wind: 7mph
Humidity: 84%   Direction: 220°SW
Pressure: 30.23"   Gusts: NA
Location:  44.99°N, 74.49°W
Report Text: KMSS 290853Z AUTO 22006KT 10SM CLR M10/M12 A3023 RMK AO2 SLP245 I3000 T11001122 50008
Loading
Personal Weather Stations






























Interactive Weather Map New forecast layout! Learn more

10-Day Weather Forecast

Advertisements
Track Severe Weather on mobile